createdAt,value
2023-12-08T00:01:14.804Z,1.00
2023-12-08T00:03:42.156Z,1.00
2023-12-08T00:06:09.218Z,1.00
2023-12-08T00:08:37.117Z,1.10
2023-12-08T00:11:04.409Z,1.10
2023-12-08T00:13:31.260Z,1.00
2023-12-08T00:15:58.078Z,1.00
2023-12-08T00:18:24.959Z,1.00
2023-12-08T00:20:51.814Z,1.00
2023-12-08T00:23:19.088Z,1.10
2023-12-08T00:25:46.094Z,1.00
2023-12-08T00:28:12.722Z,1.00
2023-12-08T00:30:39.400Z,1.00
2023-12-08T00:33:06.110Z,1.00
2023-12-08T00:35:33.012Z,1.00
2023-12-08T00:37:59.695Z,1.00
2023-12-08T00:40:27.086Z,1.00
2023-12-08T00:42:53.721Z,0.90
2023-12-08T00:45:21.076Z,1.00
2023-12-08T00:47:47.986Z,1.00
2023-12-08T00:50:14.792Z,1.00
2023-12-08T00:52:41.423Z,1.00
2023-12-08T00:55:08.844Z,1.00
2023-12-08T00:57:35.430Z,1.00
2023-12-08T01:00:02.292Z,1.00
2023-12-08T01:02:29.184Z,1.00
2023-12-08T01:04:55.876Z,1.00
2023-12-08T01:07:22.729Z,1.00
2023-12-08T01:09:49.483Z,1.00
2023-12-08T01:12:19.394Z,0.90
2023-12-08T01:14:46.005Z,1.00
2023-12-08T01:17:15.461Z,1.00
2023-12-08T01:19:42.143Z,1.00
2023-12-08T01:22:08.920Z,1.00
2023-12-08T01:24:35.892Z,1.00
2023-12-08T01:27:02.645Z,1.00
2023-12-08T01:29:29.340Z,1.00
2023-12-08T01:31:56.409Z,1.00
2023-12-08T01:34:23.183Z,0.90
2023-12-08T01:36:50.067Z,0.90
2023-12-08T01:39:16.865Z,0.90
2023-12-08T01:41:44.280Z,0.90
2023-12-08T01:44:14.200Z,0.90
2023-12-08T01:46:41.217Z,1.00
2023-12-08T01:49:08.388Z,1.00
2023-12-08T01:51:35.261Z,1.00
2023-12-08T01:54:02.349Z,1.00
2023-12-08T01:56:29.251Z,0.90
2023-12-08T01:58:56.009Z,0.80
2023-12-08T02:01:22.798Z,0.90
2023-12-08T02:03:51.807Z,0.90
2023-12-08T02:06:19.194Z,0.90
2023-12-08T02:08:47.943Z,0.90
2023-12-08T02:11:16.058Z,1.00
2023-12-08T02:13:45.204Z,1.00
2023-12-08T02:16:18.091Z,1.00
2023-12-08T02:18:46.209Z,1.00
2023-12-08T02:21:17.073Z,1.00
2023-12-08T02:23:50.332Z,1.00
2023-12-08T02:26:21.964Z,1.00
2023-12-08T02:28:48.875Z,1.00
2023-12-08T02:31:20.050Z,1.00
2023-12-08T02:33:53.080Z,1.00
2023-12-08T02:36:20.683Z,1.00
2023-12-08T02:38:51.950Z,1.00
2023-12-08T02:41:18.759Z,1.00
2023-12-08T02:43:45.410Z,1.10
2023-12-08T02:46:12.168Z,1.10
2023-12-08T02:48:39.060Z,1.10
2023-12-08T02:51:06.023Z,1.10
2023-12-08T02:53:32.832Z,1.10
2023-12-08T02:55:59.498Z,1.10
2023-12-08T02:58:28.680Z,1.10
2023-12-08T03:00:55.708Z,1.10
2023-12-08T03:03:22.466Z,1.10
2023-12-08T03:05:49.159Z,1.00
2023-12-08T03:08:16.030Z,1.00
2023-12-08T03:10:42.839Z,1.00
2023-12-08T03:13:09.640Z,1.10
2023-12-08T03:15:36.287Z,1.00
2023-12-08T03:18:03.042Z,1.10
2023-12-08T03:20:29.835Z,1.10
2023-12-08T03:22:56.872Z,1.10
2023-12-08T03:25:23.477Z,1.10
2023-12-08T03:27:50.208Z,1.10
2023-12-08T03:30:17.196Z,1.10
2023-12-08T03:32:44.183Z,1.10
2023-12-08T03:35:10.862Z,1.10
2023-12-08T03:37:37.545Z,1.10
2023-12-08T03:40:04.956Z,1.20
2023-12-08T03:42:38.117Z,1.10
2023-12-08T03:45:06.033Z,1.10
2023-12-08T03:47:32.974Z,1.20
2023-12-08T03:49:59.831Z,1.10
2023-12-08T03:52:26.516Z,1.10
2023-12-08T03:54:56.507Z,1.10
2023-12-08T03:57:23.535Z,1.20
2023-12-08T03:59:50.392Z,1.20
2023-12-08T04:02:20.310Z,1.20
2023-12-08T04:04:49.713Z,1.20
2023-12-08T04:07:16.561Z,1.20
2023-12-08T04:09:43.412Z,1.20
2023-12-08T04:12:10.230Z,1.20
2023-12-08T04:14:37.035Z,1.10
2023-12-08T04:17:03.714Z,1.20
2023-12-08T04:19:30.924Z,1.20
2023-12-08T04:21:57.847Z,1.20
2023-12-08T04:24:24.756Z,1.20
2023-12-08T04:26:51.835Z,1.20
2023-12-08T04:29:18.812Z,1.20
2023-12-08T04:31:45.845Z,1.20
2023-12-08T04:34:12.640Z,1.20
2023-12-08T04:36:39.520Z,1.10
2023-12-08T04:39:06.207Z,1.10
2023-12-08T04:41:33.091Z,1.10
2023-12-08T04:44:00.242Z,1.00
2023-12-08T04:46:27.022Z,1.00
2023-12-08T04:48:53.938Z,0.90
2023-12-08T04:51:20.699Z,0.90
2023-12-08T04:53:47.550Z,0.90
2023-12-08T04:56:14.393Z,0.80
2023-12-08T04:58:41.067Z,0.80
2023-12-08T05:01:13.892Z,0.80
2023-12-08T05:03:41.937Z,0.80
2023-12-08T05:06:10.315Z,0.80
2023-12-08T05:08:40.105Z,0.70
2023-12-08T05:11:07.802Z,0.70
2023-12-08T05:13:35.145Z,0.70
2023-12-08T05:16:02.025Z,0.70
2023-12-08T05:18:32.780Z,0.70
2023-12-08T05:20:59.665Z,0.70
2023-12-08T05:23:26.701Z,0.60
2023-12-08T05:25:53.380Z,0.60
2023-12-08T05:28:20.592Z,0.60
2023-12-08T05:30:47.960Z,0.60
2023-12-08T05:33:14.708Z,0.60
2023-12-08T05:35:41.576Z,0.60
2023-12-08T05:38:08.258Z,0.60
2023-12-08T05:40:35.054Z,0.60
2023-12-08T05:43:01.689Z,0.60
2023-12-08T05:45:28.295Z,0.60
2023-12-08T05:47:55.207Z,0.60
2023-12-08T05:50:22.040Z,0.60
2023-12-08T05:52:48.823Z,0.60
2023-12-08T05:55:15.616Z,0.60
2023-12-08T05:57:42.437Z,0.50
2023-12-08T06:00:13.159Z,0.50
2023-12-08T06:02:40.016Z,0.50
2023-12-08T06:05:07.155Z,0.50
2023-12-08T06:07:35.056Z,0.50
2023-12-08T06:10:01.974Z,0.50
2023-12-08T06:12:28.607Z,0.50
2023-12-08T06:14:56.164Z,0.50
2023-12-08T06:17:22.919Z,0.50
2023-12-08T06:19:50.049Z,0.50
2023-12-08T06:22:16.644Z,0.50
2023-12-08T06:24:43.301Z,0.50
2023-12-08T06:27:10.102Z,0.50
2023-12-08T06:29:36.970Z,0.50
2023-12-08T06:32:04.057Z,0.50
2023-12-08T06:34:30.799Z,0.50
2023-12-08T06:36:57.631Z,0.50
2023-12-08T06:39:24.470Z,0.50
2023-12-08T06:41:51.365Z,0.50
2023-12-08T06:44:21.373Z,0.50
2023-12-08T06:46:48.253Z,0.50
2023-12-08T06:49:15.388Z,0.50
2023-12-08T06:51:42.279Z,0.50
2023-12-08T06:54:09.321Z,0.50
2023-12-08T06:56:36.697Z,0.50
2023-12-08T06:59:03.527Z,0.50
2023-12-08T07:01:30.253Z,0.50
2023-12-08T07:03:56.950Z,0.50
2023-12-08T07:06:23.887Z,0.50
2023-12-08T07:08:50.730Z,0.50
2023-12-08T07:11:24.017Z,0.50
2023-12-08T07:13:50.772Z,0.50
2023-12-08T07:16:17.672Z,0.50
2023-12-08T07:18:44.506Z,0.50
2023-12-08T07:21:11.225Z,0.50
2023-12-08T07:23:37.979Z,0.50
2023-12-08T07:26:05.929Z,0.50
2023-12-08T07:28:32.814Z,0.50
2023-12-08T07:30:59.513Z,0.50
2023-12-08T07:33:26.357Z,0.50
2023-12-08T07:35:53.137Z,0.50
2023-12-08T07:38:19.907Z,0.50
2023-12-08T07:40:46.992Z,0.60
2023-12-08T07:43:13.781Z,0.60
2023-12-08T07:45:43.543Z,0.60
2023-12-08T07:48:13.399Z,0.60
2023-12-08T07:50:40.270Z,0.60
2023-12-08T07:53:10.205Z,0.50
2023-12-08T07:55:37.500Z,0.50
2023-12-08T07:58:07.620Z,0.60
2023-12-08T08:00:34.763Z,0.60
2023-12-08T08:03:01.896Z,0.60
2023-12-08T08:05:29.006Z,0.60
2023-12-08T08:07:56.519Z,0.60
2023-12-08T08:10:23.794Z,0.60
2023-12-08T08:12:52.961Z,0.60
2023-12-08T08:15:20.127Z,0.60
2023-12-08T08:17:47.550Z,0.60
2023-12-08T08:20:15.380Z,0.60
2023-12-08T08:22:42.317Z,0.60
2023-12-08T08:25:13.099Z,0.60
2023-12-08T08:27:40.888Z,0.60
2023-12-08T08:30:08.132Z,0.60
2023-12-08T08:32:39.963Z,0.70
2023-12-08T08:35:08.056Z,0.70
2023-12-08T08:37:35.163Z,0.70
2023-12-08T08:40:02.415Z,0.70
2023-12-08T08:42:29.638Z,0.70
2023-12-08T08:44:56.850Z,0.70
2023-12-08T08:47:24.059Z,0.70
2023-12-08T08:49:51.647Z,0.70
2023-12-08T08:52:20.495Z,0.80
2023-12-08T08:54:50.267Z,0.80
2023-12-08T08:57:18.118Z,0.80
2023-12-08T08:59:47.634Z,0.80
2023-12-08T09:02:14.563Z,0.80
2023-12-08T09:04:41.509Z,0.80
2023-12-08T09:07:08.493Z,0.80
2023-12-08T09:09:35.409Z,0.80
2023-12-08T09:12:04.886Z,0.80
2023-12-08T09:14:32.328Z,0.80
2023-12-08T09:17:00.228Z,0.90
2023-12-08T09:19:29.907Z,0.90
2023-12-08T09:21:56.903Z,0.90
2023-12-08T09:24:32.730Z,0.90
2023-12-08T09:27:04.572Z,0.90
2023-12-08T09:29:31.715Z,0.90
2023-12-08T09:31:58.791Z,0.90
2023-12-08T09:34:25.887Z,1.00
2023-12-08T09:37:25.416Z,1.00
2023-12-08T09:39:42.390Z,1.00
2023-12-08T09:42:38.063Z,1.00
2023-12-08T09:45:06.385Z,1.00
2023-12-08T09:47:36.702Z,1.00
2023-12-08T09:50:07.142Z,1.00
2023-12-08T09:52:38.768Z,1.00
2023-12-08T09:55:07.129Z,1.00
2023-12-08T09:57:35.622Z,1.10
2023-12-08T10:00:08.732Z,1.10
2023-12-08T10:02:35.448Z,1.10
2023-12-08T10:05:02.647Z,1.10
2023-12-08T10:07:33.107Z,1.10
2023-12-08T10:10:03.427Z,1.20
2023-12-08T10:12:31.273Z,1.20
2023-12-08T10:15:03.111Z,1.20
2023-12-08T10:17:48.163Z,1.30
2023-12-08T10:20:16.743Z,1.30
2023-12-08T10:23:00.600Z,1.20
2023-12-08T10:25:29.502Z,1.30
2023-12-08T10:27:57.320Z,1.30
2023-12-08T10:30:27.521Z,1.30
2023-12-08T10:32:57.174Z,1.30
2023-12-08T10:35:24.270Z,1.30
2023-12-08T10:37:51.644Z,1.40
2023-12-08T10:40:20.244Z,1.40
2023-12-08T10:42:49.795Z,1.40
2023-12-08T10:45:17.720Z,1.50
2023-12-08T10:47:47.407Z,1.50
2023-12-08T10:50:15.053Z,1.50
2023-12-08T10:52:42.764Z,1.50
2023-12-08T10:55:11.360Z,1.40
2023-12-08T10:57:45.386Z,1.50
2023-12-08T11:00:19.235Z,1.50
2023-12-08T11:02:52.392Z,1.50
2023-12-08T11:05:40.136Z,1.50
2023-12-08T11:08:14.681Z,1.50
2023-12-08T11:10:53.442Z,1.50
2023-12-08T11:13:29.388Z,1.40
2023-12-08T11:16:17.024Z,1.40
2023-12-08T11:18:48.963Z,1.50
2023-12-08T11:21:16.117Z,1.50
2023-12-08T11:23:46.530Z,1.50
2023-12-08T11:26:19.660Z,1.40
2023-12-08T11:29:11.518Z,1.50
2023-12-08T11:32:00.901Z,1.50
2023-12-08T11:34:36.278Z,1.50
2023-12-08T11:37:04.954Z,1.50
2023-12-08T11:39:35.685Z,1.50
2023-12-08T11:42:07.601Z,1.50
2023-12-08T11:44:36.174Z,1.50
2023-12-08T11:47:06.320Z,1.50
2023-12-08T11:49:48.227Z,1.50
2023-12-08T11:52:16.018Z,1.50
2023-12-08T11:55:07.791Z,1.50
2023-12-08T11:57:53.048Z,1.50
2023-12-08T12:00:31.022Z,1.50
2023-12-08T12:03:02.434Z,1.50
2023-12-08T12:05:29.696Z,1.50
2023-12-08T12:07:58.642Z,1.50
2023-12-08T12:10:26.657Z,1.50
2023-12-08T12:13:14.810Z,1.60
2023-12-08T12:15:54.017Z,1.70
2023-12-08T12:18:21.085Z,1.60
2023-12-08T12:20:49.907Z,1.70
2023-12-08T12:23:33.911Z,1.70
2023-12-08T12:26:04.850Z,1.70
2023-12-08T12:28:32.665Z,1.80
2023-12-08T12:31:30.947Z,1.80
2023-12-08T12:33:58.506Z,1.80
2023-12-08T12:36:26.174Z,1.80
2023-12-08T12:39:01.324Z,1.80
2023-12-08T12:41:31.712Z,1.80
2023-12-08T12:43:59.514Z,1.90
2023-12-08T12:46:29.682Z,1.90
2023-12-08T12:49:18.186Z,1.90
2023-12-08T12:51:45.834Z,2.00
2023-12-08T12:54:12.668Z,2.00
2023-12-08T12:56:53.231Z,2.00
2023-12-08T12:59:20.197Z,2.00
2023-12-08T13:01:50.237Z,2.00
2023-12-08T13:04:17.451Z,2.00
2023-12-08T13:06:44.232Z,2.00
2023-12-08T13:09:11.119Z,2.00
2023-12-08T13:11:38.414Z,2.00
2023-12-08T13:14:05.123Z,2.00
2023-12-08T13:16:33.907Z,2.10
2023-12-08T13:19:01.411Z,2.10
2023-12-08T13:21:31.257Z,2.10
2023-12-08T13:24:01.661Z,2.10
2023-12-08T13:26:28.984Z,2.10
2023-12-08T13:28:55.774Z,2.10
2023-12-08T13:31:25.694Z,2.20
2023-12-08T13:34:18.635Z,2.20
2023-12-08T13:36:45.549Z,2.20
2023-12-08T13:39:24.817Z,2.10
2023-12-08T13:41:51.628Z,2.10
2023-12-08T13:44:24.221Z,2.20
2023-12-08T13:46:54.620Z,2.10
2023-12-08T13:49:21.547Z,2.10
2023-12-08T13:51:51.613Z,2.20
2023-12-08T13:54:18.586Z,2.10
2023-12-08T13:56:45.323Z,2.10
2023-12-08T13:59:12.443Z,2.10
2023-12-08T14:01:41.713Z,2.10
2023-12-08T14:04:08.888Z,2.20
2023-12-08T14:06:35.646Z,2.10
2023-12-08T14:09:02.951Z,2.20
2023-12-08T14:11:29.680Z,2.10
2023-12-08T14:13:56.542Z,2.20
2023-12-08T14:16:23.483Z,2.10
2023-12-08T14:18:50.376Z,2.10
2023-12-08T14:21:17.700Z,2.10
2023-12-08T14:23:44.975Z,2.10
2023-12-08T14:26:11.891Z,2.20
2023-12-08T14:28:38.619Z,2.30
2023-12-08T14:31:05.393Z,2.20
2023-12-08T14:33:33.324Z,2.20
2023-12-08T14:36:03.672Z,2.20
2023-12-08T14:38:30.777Z,2.20
2023-12-08T14:40:57.943Z,2.20
2023-12-08T14:43:25.062Z,2.20
2023-12-08T14:45:54.454Z,2.20
2023-12-08T14:48:23.465Z,2.20
2023-12-08T14:50:51.170Z,2.10
2023-12-08T14:53:20.880Z,2.10
2023-12-08T14:55:59.040Z,2.10
2023-12-08T14:58:27.474Z,2.10
2023-12-08T15:00:54.633Z,2.20
2023-12-08T15:03:21.462Z,2.10
2023-12-08T15:05:49.194Z,2.10
2023-12-08T15:08:16.181Z,2.10
2023-12-08T15:10:43.030Z,2.00
2023-12-08T15:13:10.809Z,2.00
2023-12-08T15:15:48.484Z,2.00
2023-12-08T15:18:16.399Z,2.00
2023-12-08T15:20:53.810Z,2.00
2023-12-08T15:23:21.980Z,2.10
2023-12-08T15:25:49.107Z,2.00
2023-12-08T15:28:15.834Z,2.00
2023-12-08T15:30:42.890Z,2.00
2023-12-08T15:33:09.723Z,2.00
2023-12-08T15:35:36.862Z,2.00
2023-12-08T15:38:06.172Z,2.00
2023-12-08T15:40:33.231Z,2.00
2023-12-08T15:42:59.852Z,2.00
2023-12-08T15:45:26.607Z,2.00
2023-12-08T15:47:53.704Z,2.00
2023-12-08T15:50:20.521Z,2.00
2023-12-08T15:52:47.903Z,2.00
2023-12-08T15:55:14.678Z,2.00
2023-12-08T15:57:41.370Z,2.00
2023-12-08T16:00:08.832Z,2.00
2023-12-08T16:02:35.586Z,2.00
2023-12-08T16:05:02.246Z,2.10
2023-12-08T16:07:29.739Z,2.10
2023-12-08T16:09:56.672Z,2.10
2023-12-08T16:12:23.549Z,2.00
2023-12-08T16:14:50.485Z,2.00
2023-12-08T16:17:17.492Z,2.00
2023-12-08T16:19:44.896Z,2.10
2023-12-08T16:22:12.743Z,2.10
2023-12-08T16:24:43.035Z,2.10
2023-12-08T16:27:12.076Z,2.10
2023-12-08T16:29:39.111Z,2.10
2023-12-08T16:32:07.804Z,2.00
2023-12-08T16:34:40.889Z,2.00
2023-12-08T16:37:14.885Z,2.00
2023-12-08T16:39:44.976Z,2.00
2023-12-08T16:42:12.255Z,2.00
2023-12-08T16:44:39.394Z,2.00
2023-12-08T16:47:06.405Z,2.00
2023-12-08T16:49:34.851Z,2.00
2023-12-08T16:52:02.021Z,2.00
2023-12-08T16:54:28.861Z,2.10
2023-12-08T16:56:55.674Z,2.10
2023-12-08T16:59:22.479Z,2.10
2023-12-08T17:01:49.318Z,2.10
2023-12-08T17:04:17.044Z,2.10
2023-12-08T17:06:43.801Z,2.10
2023-12-08T17:09:10.547Z,2.00
2023-12-08T17:11:37.194Z,2.00
2023-12-08T17:14:03.982Z,2.00
2023-12-08T17:16:30.676Z,2.00
2023-12-08T17:18:57.506Z,2.00
2023-12-08T17:21:24.494Z,2.00
2023-12-08T17:23:51.250Z,2.00
2023-12-08T17:26:22.701Z,2.00
2023-12-08T17:28:55.978Z,2.00
2023-12-08T17:31:23.695Z,2.00
2023-12-08T17:33:51.038Z,2.00
2023-12-08T17:36:17.845Z,2.00
2023-12-08T17:38:44.713Z,2.00
2023-12-08T17:41:12.247Z,2.00
2023-12-08T17:43:39.133Z,2.10
2023-12-08T17:46:06.017Z,2.00
2023-12-08T17:48:32.827Z,2.00
2023-12-08T17:51:00.611Z,2.00
2023-12-08T17:53:27.610Z,2.00
2023-12-08T17:55:54.250Z,2.00
2023-12-08T17:58:20.934Z,2.00
2023-12-08T18:00:47.707Z,2.00
2023-12-08T18:03:14.500Z,2.00
2023-12-08T18:05:41.555Z,2.00
2023-12-08T18:08:08.714Z,2.00
2023-12-08T18:10:35.491Z,2.00
2023-12-08T18:13:02.308Z,2.00
2023-12-08T18:15:29.198Z,2.00
2023-12-08T18:17:55.973Z,2.00
2023-12-08T18:20:22.747Z,2.00
2023-12-08T18:22:49.416Z,2.00
2023-12-08T18:25:16.274Z,2.10
2023-12-08T18:27:58.315Z,2.10
2023-12-08T18:30:30.670Z,2.10
2023-12-08T18:32:57.577Z,2.10
2023-12-08T18:35:24.239Z,2.10
2023-12-08T18:37:50.976Z,2.10
2023-12-08T18:40:17.759Z,2.10
2023-12-08T18:42:45.624Z,2.10
2023-12-08T18:45:14.189Z,2.00
2023-12-08T18:47:41.014Z,2.00
2023-12-08T18:50:08.448Z,2.10
2023-12-08T18:52:35.144Z,2.00
2023-12-08T18:55:04.100Z,2.00
2023-12-08T18:57:31.284Z,2.00
2023-12-08T19:00:00.690Z,2.00
2023-12-08T19:02:27.740Z,2.00
2023-12-08T19:04:54.620Z,2.10
2023-12-08T19:07:22.178Z,2.10
2023-12-08T19:09:48.835Z,2.10
2023-12-08T19:12:15.488Z,2.10
2023-12-08T19:14:42.127Z,2.10
2023-12-08T19:17:08.806Z,2.10
2023-12-08T19:19:35.516Z,2.10
2023-12-08T19:22:02.292Z,2.10
2023-12-08T19:24:28.997Z,2.10
2023-12-08T19:26:55.798Z,2.10
2023-12-08T19:29:22.481Z,2.10
2023-12-08T19:31:50.274Z,2.10
2023-12-08T19:34:17.072Z,2.10
2023-12-08T19:36:43.768Z,2.10
2023-12-08T19:39:11.115Z,2.10
2023-12-08T19:41:38.841Z,2.10
2023-12-08T19:44:07.902Z,2.10
2023-12-08T19:46:34.752Z,2.10
2023-12-08T19:49:01.554Z,2.20
2023-12-08T19:51:28.434Z,2.20
2023-12-08T19:53:55.267Z,2.20
2023-12-08T19:56:21.912Z,2.20
2023-12-08T19:58:48.628Z,2.20
2023-12-08T20:01:15.487Z,2.20
2023-12-08T20:03:42.290Z,2.20
2023-12-08T20:06:09.249Z,2.20
2023-12-08T20:08:36.421Z,2.20
2023-12-08T20:11:05.560Z,2.10
2023-12-08T20:13:32.199Z,2.10
2023-12-08T20:15:58.858Z,2.10
2023-12-08T20:18:25.932Z,2.20
2023-12-08T20:20:52.685Z,2.20
2023-12-08T20:23:19.520Z,2.20
2023-12-08T20:25:46.156Z,2.20
2023-12-08T20:28:12.925Z,2.20
2023-12-08T20:30:40.618Z,2.20
2023-12-08T20:33:09.623Z,2.20
2023-12-08T20:35:36.401Z,2.20
2023-12-08T20:38:03.976Z,2.20
2023-12-08T20:40:30.655Z,2.20
2023-12-08T20:42:57.392Z,2.20
2023-12-08T20:45:24.131Z,2.20
2023-12-08T20:47:51.083Z,2.30
2023-12-08T20:50:18.671Z,2.30
2023-12-08T20:52:45.748Z,2.30
2023-12-08T20:55:12.461Z,2.30
2023-12-08T20:57:39.125Z,2.30
2023-12-08T21:00:06.656Z,2.30
2023-12-08T21:02:33.504Z,2.30
2023-12-08T21:05:00.317Z,2.30
2023-12-08T21:07:27.400Z,2.30
2023-12-08T21:09:57.549Z,2.30
2023-12-08T21:12:24.743Z,2.40
2023-12-08T21:14:51.478Z,2.30
2023-12-08T21:17:18.227Z,2.30
2023-12-08T21:19:45.630Z,2.30
2023-12-08T21:22:12.417Z,2.30
2023-12-08T21:24:39.096Z,2.30
2023-12-08T21:27:05.843Z,2.40
2023-12-08T21:29:32.503Z,2.30
2023-12-08T21:31:59.221Z,2.30
2023-12-08T21:34:25.867Z,2.30
2023-12-08T21:36:52.575Z,2.30
2023-12-08T21:39:19.540Z,2.30
2023-12-08T21:41:47.409Z,2.30
2023-12-08T21:44:14.094Z,2.30
2023-12-08T21:46:40.738Z,2.30
2023-12-08T21:49:07.642Z,2.30
2023-12-08T21:51:34.508Z,2.30
2023-12-08T21:54:01.360Z,2.30
2023-12-08T21:56:30.773Z,2.30
2023-12-08T21:59:00.189Z,2.40
2023-12-08T22:01:27.310Z,2.40
2023-12-08T22:03:57.434Z,2.50
2023-12-08T22:06:24.693Z,2.50
2023-12-08T22:08:51.485Z,2.50
2023-12-08T22:11:18.480Z,2.50
2023-12-08T22:13:46.510Z,2.50
2023-12-08T22:16:13.290Z,2.50
2023-12-08T22:18:41.535Z,2.50
2023-12-08T22:21:09.827Z,2.40
2023-12-08T22:23:37.887Z,2.40
2023-12-08T22:26:05.077Z,2.50
2023-12-08T22:28:32.001Z,2.40
2023-12-08T22:30:58.939Z,2.40
2023-12-08T22:33:26.511Z,2.40
2023-12-08T22:35:54.135Z,2.40
2023-12-08T22:38:20.949Z,2.40
2023-12-08T22:40:47.775Z,2.50
2023-12-08T22:43:14.441Z,2.50
2023-12-08T22:45:41.268Z,2.40
2023-12-08T22:48:08.162Z,2.50
2023-12-08T22:50:43.270Z,2.40
2023-12-08T22:53:15.441Z,2.40
2023-12-08T22:55:42.098Z,2.50
2023-12-08T22:58:09.003Z,2.40
2023-12-08T23:00:36.427Z,2.50
2023-12-08T23:03:03.222Z,2.50
2023-12-08T23:05:31.569Z,2.50
2023-12-08T23:07:58.205Z,2.50
2023-12-08T23:10:24.819Z,2.50
2023-12-08T23:12:51.616Z,2.50
2023-12-08T23:15:18.670Z,2.50
2023-12-08T23:17:45.661Z,2.50
2023-12-08T23:20:12.481Z,2.50
2023-12-08T23:22:39.200Z,2.50
2023-12-08T23:25:06.549Z,2.50
2023-12-08T23:27:33.323Z,2.50
2023-12-08T23:30:00.197Z,2.50
2023-12-08T23:32:27.289Z,2.50
2023-12-08T23:34:54.211Z,2.60
2023-12-08T23:37:20.999Z,2.60
2023-12-08T23:39:48.041Z,2.60
2023-12-08T23:42:14.727Z,2.60
2023-12-08T23:44:41.615Z,2.60
2023-12-08T23:47:08.652Z,2.60
2023-12-08T23:49:35.398Z,2.60
2023-12-08T23:52:02.235Z,2.70
2023-12-08T23:54:29.116Z,2.60
2023-12-08T23:56:55.945Z,2.60
2023-12-08T23:59:22.799Z,2.70
